Time;durP1;ratioP1;P1;durP2;ratioP2;P2;SDS_P1;SDS_P2;PMS_P1;PMS_P2;Temp;Humidity;BMP_temperature;BMP_pressure;BME280_temperature;BME280_humidity;BME280_pressure;Samples;Min_cycle;Max_cycle;Signal;HPM_P1;HPM_P2
2023/11/20 00:00:12;;;;;;;22.52;2.50;;;11.70;99.90;;;;;;5035143;28;20096;-71
2023/11/20 00:02:39;;;;;;;23.42;3.53;;;11.70;99.90;;;;;;5034935;28;20025;-71
2023/11/20 00:05:04;;;;;;;25.10;2.75;;;11.70;99.90;;;;;;5030586;28;20045;-71
2023/11/20 00:07:30;;;;;;;30.08;3.60;;;11.70;99.90;;;;;;5041334;28;20031;-71
2023/11/20 00:09:55;;;;;;;28.58;3.15;;;11.70;99.90;;;;;;5030711;28;20490;-70
2023/11/20 00:12:21;;;;;;;28.75;2.80;;;11.70;99.90;;;;;;5038233;28;20507;-71
2023/11/20 00:14:46;;;;;;;18.88;2.63;;;11.70;99.90;;;;;;5038679;28;20103;-71
2023/11/20 00:17:13;;;;;;;21.20;2.55;;;11.60;99.90;;;;;;5035673;28;20036;-71
2023/11/20 00:19:39;;;;;;;22.27;3.28;;;11.60;99.90;;;;;;5040641;28;20034;-70
2023/11/20 00:22:05;;;;;;;20.10;2.25;;;11.60;99.90;;;;;;5030783;28;20080;-71
2023/11/20 00:24:30;;;;;;;21.95;2.83;;;11.50;99.90;;;;;;5030439;28;20091;-71
2023/11/20 00:26:56;;;;;;;18.55;2.60;;;11.60;99.90;;;;;;5033944;28;20045;-71
2023/11/20 00:29:21;;;;;;;26.48;3.35;;;11.50;99.90;;;;;;5029367;28;20034;-71
2023/11/20 00:31:47;;;;;;;27.83;3.30;;;11.50;99.90;;;;;;5032590;28;20110;-71
2023/11/20 00:34:12;;;;;;;26.67;4.22;;;11.40;99.90;;;;;;5038269;28;20496;-71
2023/11/20 00:36:38;;;;;;;23.15;3.30;;;11.50;99.90;;;;;;5044103;28;20026;-71
2023/11/20 00:39:03;;;;;;;25.15;3.78;;;11.40;99.90;;;;;;5038249;28;20033;-71
2023/11/20 00:41:31;;;;;;;19.17;2.95;;;11.40;99.90;;;;;;5031296;28;20482;-71
2023/11/20 00:43:59;;;;;;;15.07;2.60;;;11.40;99.90;;;;;;5043725;28;20042;-71
2023/11/20 00:46:25;;;;;;;22.52;2.97;;;11.40;99.90;;;;;;5034642;28;20034;-71
2023/11/20 00:48:50;;;;;;;20.35;2.55;;;11.40;99.90;;;;;;5042370;28;20473;-71
2023/11/20 00:51:16;;;;;;;16.10;2.10;;;11.40;99.90;;;;;;5038843;28;20122;-71
2023/11/20 00:53:42;;;;;;;17.48;2.00;;;11.40;99.90;;;;;;5032822;28;20017;-71
2023/11/20 00:56:07;;;;;;;18.63;1.90;;;11.40;99.90;;;;;;5029849;28;20029;-71
2023/11/20 00:58:34;;;;;;;27.85;3.13;;;11.40;99.90;;;;;;5031710;28;20032;-71
2023/11/20 01:01:01;;;;;;;28.92;4.00;;;11.40;99.90;;;;;;5037616;28;20056;-71
2023/11/20 01:03:27;;;;;;;22.45;2.55;;;11.40;99.90;;;;;;5039935;28;20108;-71
2023/11/20 01:05:52;;;;;;;28.15;2.80;;;11.40;99.90;;;;;;5035207;28;20120;-70
2023/11/20 01:08:18;;;;;;;22.85;2.80;;;11.40;99.90;;;;;;5041239;28;20036;-71
2023/11/20 01:10:44;;;;;;;20.83;2.50;;;11.40;99.90;;;;;;5035694;28;20498;-71
2023/11/20 01:13:09;;;;;;;24.10;2.45;;;11.30;99.90;;;;;;5034089;28;20417;-71
2023/11/20 01:15:35;;;;;;;26.73;2.22;;;11.40;99.90;;;;;;5036451;28;20472;-70
2023/11/20 01:18:00;;;;;;;20.60;2.53;;;11.40;99.90;;;;;;5038977;28;20057;-71
2023/11/20 01:20:26;;;;;;;20.30;1.88;;;11.40;99.90;;;;;;5040975;28;20034;-71
2023/11/20 01:22:51;;;;;;;17.90;2.33;;;11.40;99.90;;;;;;5033714;28;20432;-71
2023/11/20 01:25:18;;;;;;;18.83;1.90;;;11.40;99.90;;;;;;5037504;28;20041;-71
2023/11/20 01:27:44;;;;;;;19.45;2.00;;;11.40;99.90;;;;;;5040423;28;20029;-71
2023/11/20 01:30:09;;;;;;;26.30;4.15;;;11.40;99.90;;;;;;5036925;28;20072;-71
2023/11/20 01:32:35;;;;;;;20.38;1.80;;;11.40;99.90;;;;;;5033524;28;20477;-71
2023/11/20 01:35:01;;;;;;;21.65;1.83;;;11.40;99.90;;;;;;5041723;28;20033;-71
2023/11/20 01:37:26;;;;;;;21.85;1.92;;;11.40;99.90;;;;;;5032459;28;20033;-71
2023/11/20 01:39:52;;;;;;;17.88;1.63;;;11.40;99.90;;;;;;5040482;28;20032;-71
2023/11/20 01:42:19;;;;;;;24.42;1.95;;;11.40;99.90;;;;;;5034884;28;20535;-71
2023/11/20 01:44:44;;;;;;;18.73;1.98;;;11.40;99.90;;;;;;5038648;28;20073;-71
2023/11/20 01:47:11;;;;;;;19.10;1.83;;;11.40;99.90;;;;;;5037146;28;20075;-70
2023/11/20 01:49:39;;;;;;;19.17;1.67;;;11.40;99.90;;;;;;5035407;28;20405;-71
2023/11/20 01:52:05;;;;;;;21.45;2.95;;;11.50;99.90;;;;;;5034654;28;20036;-71
2023/11/20 01:54:32;;;;;;;19.83;1.58;;;11.50;99.90;;;;;;5036096;28;20029;-71
2023/11/20 01:56:59;;;;;;;13.68;1.23;;;11.50;99.90;;;;;;5044200;28;20757;-71
2023/11/20 01:59:25;;;;;;;17.02;1.50;;;11.50;99.90;;;;;;5035048;28;20032;-72
2023/11/20 02:01:51;;;;;;;17.73;1.55;;;11.50;99.90;;;;;;5042702;28;20493;-71
2023/11/20 02:04:20;;;;;;;21.98;1.48;;;11.40;99.90;;;;;;5033018;28;20033;-71
2023/11/20 02:06:46;;;;;;;15.48;0.93;;;11.40;99.90;;;;;;5038686;28;20028;-71
2023/11/20 02:09:11;;;;;;;24.75;1.90;;;11.40;99.90;;;;;;5032613;28;20041;-71
2023/11/20 02:11:37;;;;;;;14.20;1.25;;;11.40;99.90;;;;;;5038046;28;20033;-71
2023/11/20 02:14:03;;;;;;;12.98;1.52;;;11.40;99.90;;;;;;5031907;28;20417;-71
2023/11/20 02:16:28;;;;;;;12.98;1.33;;;11.40;99.90;;;;;;5040387;28;20033;-71
2023/11/20 02:18:54;;;;;;;18.02;1.52;;;11.40;99.90;;;;;;5039263;28;20029;-71
2023/11/20 02:21:19;;;;;;;20.38;1.98;;;11.40;99.90;;;;;;5032417;28;20029;-71
2023/11/20 02:23:45;;;;;;;18.60;1.50;;;11.50;99.90;;;;;;5044003;28;20549;-71
2023/11/20 02:26:32;;;;;;;17.48;1.52;;;11.50;99.90;;;;;;5041101;28;20435;-71
2023/11/20 02:29:17;;;;;;;29.70;3.53;;;11.50;99.90;;;;;;5041409;28;20378;-71
2023/11/20 02:31:43;;;;;;;19.13;1.60;;;11.60;99.90;;;;;;5030785;28;20029;-71
2023/11/20 02:34:09;;;;;;;24.45;1.73;;;11.60;99.90;;;;;;5039900;28;20101;-71
2023/11/20 02:36:34;;;;;;;17.23;1.25;;;11.60;99.90;;;;;;5034002;28;20033;-71
2023/11/20 02:39:01;;;;;;;28.02;2.03;;;11.60;99.90;;;;;;5037595;28;20503;-71
2023/11/20 02:41:26;;;;;;;17.73;1.77;;;11.60;99.90;;;;;;5038783;28;20021;-71
2023/11/20 02:43:52;;;;;;;22.42;2.05;;;11.50;99.90;;;;;;5031654;28;20176;-71
2023/11/20 02:46:17;;;;;;;21.35;2.25;;;11.50;99.90;;;;;;5048082;28;20381;-71
2023/11/20 02:48:43;;;;;;;21.77;1.80;;;11.50;99.90;;;;;;5050577;28;20040;-71
2023/11/20 02:51:09;;;;;;;21.05;2.25;;;11.40;99.90;;;;;;5039580;28;20075;-71
2023/11/20 02:53:35;;;;;;;20.95;2.35;;;11.30;99.90;;;;;;5031278;28;20106;-71
2023/11/20 02:56:00;;;;;;;23.65;2.78;;;11.30;99.90;;;;;;5031679;28;20500;-71
2023/11/20 02:58:26;;;;;;;19.88;1.60;;;11.30;99.90;;;;;;5031804;28;20417;-71
2023/11/20 03:00:53;;;;;;;15.32;1.60;;;11.20;99.90;;;;;;5030311;28;20018;-71
2023/11/20 03:03:19;;;;;;;21.85;1.80;;;11.20;99.90;;;;;;5030977;28;20022;-70
2023/11/20 03:05:45;;;;;;;16.77;1.65;;;11.30;99.90;;;;;;5035746;28;20527;-71
2023/11/20 03:08:11;;;;;;;20.17;2.08;;;11.30;99.90;;;;;;5034659;28;20032;-71
2023/11/20 03:10:38;;;;;;;26.33;2.83;;;11.30;99.90;;;;;;5033975;28;20026;-71
2023/11/20 03:13:03;;;;;;;19.38;1.80;;;11.20;99.90;;;;;;5032233;28;20022;-71
2023/11/20 03:15:29;;;;;;;18.05;1.80;;;11.30;99.90;;;;;;5038122;28;20037;-71
2023/11/20 03:17:54;;;;;;;21.02;2.47;;;11.30;99.90;;;;;;5030746;28;20048;-70
2023/11/20 03:20:20;;;;;;;17.30;1.67;;;11.30;99.90;;;;;;5030957;28;20689;-71
2023/11/20 03:22:46;;;;;;;18.35;2.20;;;11.30;99.90;;;;;;5035838;28;20479;-71
2023/11/20 03:25:12;;;;;;;21.95;2.47;;;11.30;99.90;;;;;;5043981;28;20576;-71
2023/11/20 03:27:38;;;;;;;24.30;1.67;;;11.30;99.90;;;;;;5033233;28;20116;-70
2023/11/20 03:30:04;;;;;;;18.13;1.55;;;11.40;99.90;;;;;;5043945;28;20030;-71
2023/11/20 03:32:30;;;;;;;18.58;1.67;;;11.40;99.90;;;;;;5033775;28;20460;-71
2023/11/20 03:34:56;;;;;;;21.65;1.58;;;11.40;99.90;;;;;;5035707;28;20112;-71
2023/11/20 03:37:21;;;;;;;15.40;2.10;;;11.40;99.90;;;;;;5035541;28;20136;-71
2023/11/20 03:39:47;;;;;;;16.48;1.52;;;11.40;99.90;;;;;;5036797;28;20020;-71
2023/11/20 03:42:13;;;;;;;14.98;1.35;;;11.40;99.90;;;;;;5043808;28;20490;-71
2023/11/20 03:44:38;;;;;;;22.67;1.95;;;11.40;99.90;;;;;;5034017;28;20561;-70
2023/11/20 03:47:05;;;;;;;15.25;1.17;;;11.40;99.90;;;;;;5044448;28;20049;-71
2023/11/20 03:49:30;;;;;;;16.92;2.47;;;11.40;99.90;;;;;;5033261;28;20560;-71
2023/11/20 03:51:56;;;;;;;12.23;0.95;;;11.40;99.90;;;;;;5036652;28;20029;-71
2023/11/20 03:54:21;;;;;;;14.52;1.25;;;11.40;99.90;;;;;;5029983;28;21045;-71
2023/11/20 03:56:47;;;;;;;15.40;1.50;;;11.40;99.90;;;;;;5032747;28;20543;-71
2023/11/20 03:59:12;;;;;;;16.08;1.50;;;11.40;99.90;;;;;;5034863;28;20033;-70
2023/11/20 04:01:38;;;;;;;16.75;1.88;;;11.40;99.90;;;;;;5037212;28;20021;-71
2023/11/20 04:04:05;;;;;;;14.73;1.35;;;11.40;99.90;;;;;;5042451;28;20039;-71
2023/11/20 04:06:30;;;;;;;16.83;1.73;;;11.40;99.90;;;;;;5036620;28;20022;-71
2023/11/20 04:08:56;;;;;;;13.88;1.20;;;11.40;99.90;;;;;;5038704;28;20033;-71
2023/11/20 04:11:21;;;;;;;23.00;1.90;;;11.40;99.90;;;;;;5039215;28;22016;-71
2023/11/20 04:13:47;;;;;;;13.50;1.83;;;11.40;99.90;;;;;;5029622;28;20052;-71
2023/11/20 04:16:13;;;;;;;12.13;1.33;;;11.30;99.90;;;;;;5033502;28;20033;-71
2023/11/20 04:18:39;;;;;;;18.98;1.15;;;11.30;99.90;;;;;;5040246;28;20029;-71
2023/11/20 04:21:05;;;;;;;10.23;1.08;;;11.30;99.90;;;;;;5030970;28;20474;-71
2023/11/20 04:23:31;;;;;;;12.98;0.98;;;11.30;99.90;;;;;;5030439;28;20040;-71
2023/11/20 04:25:57;;;;;;;11.57;1.10;;;11.20;99.90;;;;;;5035967;28;20438;-71
2023/11/20 04:28:23;;;;;;;12.48;1.15;;;11.20;99.90;;;;;;5033475;28;20017;-71
2023/11/20 04:30:49;;;;;;;14.68;1.88;;;11.10;99.90;;;;;;5046493;28;20032;-70
2023/11/20 04:33:14;;;;;;;20.63;1.92;;;11.10;99.90;;;;;;5035316;28;20394;-70
2023/11/20 04:35:42;;;;;;;19.02;2.28;;;11.10;99.90;;;;;;5030440;28;20396;-71
2023/11/20 04:38:07;;;;;;;13.57;1.17;;;11.00;99.90;;;;;;5047309;28;20244;-71
2023/11/20 04:40:33;;;;;;;19.70;1.30;;;10.90;99.90;;;;;;5035477;28;20021;-71
2023/11/20 04:42:59;;;;;;;29.35;1.38;;;10.90;99.90;;;;;;5045261;28;20800;-70
2023/11/20 04:45:25;;;;;;;20.40;2.13;;;10.80;99.90;;;;;;5039492;28;20041;-70
2023/11/20 04:47:50;;;;;;;19.88;1.20;;;10.80;99.90;;;;;;5044300;28;20032;-71
2023/11/20 04:50:16;;;;;;;22.58;1.80;;;10.70;99.90;;;;;;5042403;28;20117;-71
2023/11/20 04:52:41;;;;;;;19.35;1.90;;;10.70;99.90;;;;;;5034078;28;20101;-71
2023/11/20 04:55:08;;;;;;;18.40;1.85;;;10.70;99.90;;;;;;5034132;28;20057;-71
2023/11/20 04:57:33;;;;;;;14.95;1.38;;;10.70;99.90;;;;;;5039441;28;20026;-71
2023/11/20 05:00:00;;;;;;;16.33;1.50;;;10.70;99.90;;;;;;5040745;28;20099;-71
2023/11/20 05:02:26;;;;;;;15.02;1.50;;;10.70;99.90;;;;;;5036223;28;20117;-71
2023/11/20 05:04:52;;;;;;;19.60;1.98;;;10.60;99.90;;;;;;5035832;28;20033;-71
2023/11/20 05:07:18;;;;;;;15.95;1.58;;;10.60;99.90;;;;;;5039769;28;20037;-71
2023/11/20 05:09:43;;;;;;;17.05;1.73;;;10.60;99.90;;;;;;5040855;28;20036;-70
2023/11/20 05:12:09;;;;;;;20.95;2.17;;;10.50;99.90;;;;;;5047401;28;20053;-71
2023/11/20 05:14:35;;;;;;;14.23;1.08;;;10.50;99.90;;;;;;5034438;28;20021;-71
2023/11/20 05:17:00;;;;;;;16.58;1.08;;;10.50;99.90;;;;;;5034925;28;20022;-70
2023/11/20 05:19:26;;;;;;;14.45;1.42;;;10.50;99.90;;;;;;5031312;28;20041;-71
2023/11/20 05:21:52;;;;;;;17.88;1.80;;;10.50;99.90;;;;;;5037325;28;20104;-71
2023/11/20 05:24:17;;;;;;;15.95;1.50;;;10.50;99.90;;;;;;5040455;28;20406;-70
2023/11/20 05:26:43;;;;;;;20.65;1.65;;;10.50;99.90;;;;;;5033678;28;20021;-71
2023/11/20 05:29:11;;;;;;;20.90;1.25;;;10.50;99.90;;;;;;5034825;28;20034;-71
2023/11/20 05:31:37;;;;;;;16.70;2.28;;;10.60;99.90;;;;;;5036238;28;20021;-71
2023/11/20 05:34:03;;;;;;;11.18;1.23;;;10.60;99.90;;;;;;5033323;28;20028;-71
2023/11/20 05:36:28;;;;;;;21.30;1.95;;;10.60;99.90;;;;;;5033395;28;20033;-71
2023/11/20 05:38:55;;;;;;;21.83;1.83;;;10.60;99.90;;;;;;5039753;28;20381;-71
2023/11/20 05:41:20;;;;;;;21.80;1.40;;;10.70;99.90;;;;;;5033483;28;20028;-71
2023/11/20 05:43:46;;;;;;;17.65;1.38;;;10.70;99.90;;;;;;5046828;28;20040;-71
2023/11/20 05:46:14;;;;;;;18.27;1.70;;;10.70;99.90;;;;;;5046025;28;20122;-71
2023/11/20 05:48:40;;;;;;;23.10;1.50;;;10.80;99.90;;;;;;5045526;28;20030;-71
2023/11/20 05:51:05;;;;;;;11.40;1.15;;;10.80;99.90;;;;;;5038078;28;20367;-70
2023/11/20 05:53:31;;;;;;;13.93;1.10;;;10.80;99.90;;;;;;5052746;28;20032;-71
2023/11/20 05:55:56;;;;;;;15.23;1.20;;;10.80;99.90;;;;;;5036805;28;20081;-70
2023/11/20 05:58:22;;;;;;;20.08;1.45;;;10.80;99.90;;;;;;5041600;28;20036;-71
2023/11/20 06:00:48;;;;;;;14.70;1.45;;;10.70;99.90;;;;;;5035204;28;20025;-70
2023/11/20 06:03:13;;;;;;;22.10;2.17;;;10.70;99.90;;;;;;5051175;28;20077;-71
2023/11/20 06:05:39;;;;;;;11.70;0.82;;;10.60;99.90;;;;;;5041885;28;20737;-71
2023/11/20 06:08:04;;;;;;;16.92;1.70;;;10.60;99.90;;;;;;5029465;28;20437;-71
2023/11/20 06:10:30;;;;;;;14.10;1.50;;;10.50;99.90;;;;;;5037568;28;20082;-71
2023/11/20 06:12:55;;;;;;;16.15;1.75;;;10.50;99.90;;;;;;5055588;28;20029;-71
2023/11/20 06:15:21;;;;;;;16.92;1.48;;;10.50;99.90;;;;;;5032508;28;20079;-71
2023/11/20 06:17:46;;;;;;;15.82;1.23;;;10.50;99.90;;;;;;5043476;28;20029;-71
2023/11/20 06:20:13;;;;;;;21.30;2.00;;;10.40;99.90;;;;;;5042823;28;20059;-71
2023/11/20 06:22:41;;;;;;;19.88;1.63;;;10.50;99.90;;;;;;5049016;28;20056;-71
2023/11/20 06:25:07;;;;;;;22.15;1.75;;;10.40;99.90;;;;;;5047401;28;20052;-71
2023/11/20 06:27:33;;;;;;;17.83;1.35;;;10.40;99.90;;;;;;5032453;28;20523;-71
2023/11/20 06:29:59;;;;;;;10.13;1.83;;;10.40;99.90;;;;;;5035399;28;20112;-71
2023/11/20 06:32:25;;;;;;;17.48;2.03;;;10.30;99.90;;;;;;5032587;28;20044;-71
2023/11/20 06:34:51;;;;;;;18.25;1.38;;;10.30;99.90;;;;;;5035497;28;20026;-71
2023/11/20 06:37:17;;;;;;;18.63;2.25;;;10.30;99.90;;;;;;5041815;28;20047;-70
2023/11/20 06:39:43;;;;;;;18.98;1.50;;;10.30;99.90;;;;;;5033133;28;20073;-70
2023/11/20 06:42:08;;;;;;;22.17;1.90;;;10.40;99.90;;;;;;5038295;28;20136;-71
2023/11/20 06:44:40;;;;;;;27.05;1.48;;;10.40;99.90;;;;;;5031582;28;20909;-71
2023/11/20 06:47:09;;;;;;;21.25;1.27;;;10.50;99.90;;;;;;5029994;28;20033;-71
2023/11/20 06:49:39;;;;;;;20.75;1.52;;;10.50;99.90;;;;;;5036245;28;20029;-71
2023/11/20 06:52:05;;;;;;;17.55;1.70;;;10.60;99.90;;;;;;5035496;28;20025;-71
2023/11/20 06:54:30;;;;;;;21.38;2.25;;;10.60;99.90;;;;;;5032054;28;20079;-71
2023/11/20 06:56:56;;;;;;;31.30;2.05;;;10.60;99.90;;;;;;5043762;28;20033;-71
2023/11/20 06:59:22;;;;;;;21.67;2.88;;;10.60;99.90;;;;;;5043405;28;20030;-71
2023/11/20 07:01:47;;;;;;;15.82;1.85;;;10.60;99.90;;;;;;5042772;28;20033;-71
2023/11/20 07:04:18;;;;;;;21.33;2.08;;;10.50;99.90;;;;;;5036763;28;20037;-71
2023/11/20 07:06:43;;;;;;;25.25;2.05;;;10.50;99.90;;;;;;5039442;28;20036;-71
2023/11/20 07:09:14;;;;;;;27.88;2.20;;;10.40;99.90;;;;;;5034921;28;20021;-71
2023/11/20 07:11:40;;;;;;;14.23;1.83;;;10.40;99.90;;;;;;5031111;28;20036;-71
2023/11/20 07:14:08;;;;;;;19.30;2.00;;;10.40;99.90;;;;;;5041803;28;20029;-71
2023/11/20 07:16:34;;;;;;;20.25;2.20;;;10.30;99.90;;;;;;5031826;28;20059;-71
2023/11/20 07:19:00;;;;;;;19.10;1.90;;;10.30;99.90;;;;;;5030724;28;20036;-71
2023/11/20 07:21:25;;;;;;;22.55;1.42;;;10.20;99.90;;;;;;5041713;28;20025;-71
2023/11/20 07:23:51;;;;;;;24.35;1.88;;;10.20;99.90;;;;;;5049510;28;20469;-71
2023/11/20 07:26:20;;;;;;;13.15;1.30;;;10.20;99.90;;;;;;5040868;28;20504;-71
2023/11/20 07:28:46;;;;;;;17.23;1.63;;;10.10;99.90;;;;;;5035146;28;20030;-71
2023/11/20 07:31:12;;;;;;;21.33;1.67;;;10.10;99.90;;;;;;5038049;28;20036;-71
2023/11/20 07:33:38;;;;;;;24.10;1.67;;;10.10;99.90;;;;;;5039764;28;20035;-72
2023/11/20 07:36:04;;;;;;;17.63;1.52;;;10.10;99.90;;;;;;5032524;28;20037;-71
2023/11/20 07:38:30;;;;;;;15.02;1.30;;;10.00;99.90;;;;;;5033255;28;20473;-71
2023/11/20 07:40:56;;;;;;;15.18;1.90;;;10.00;99.90;;;;;;5024154;28;20094;-72
2023/11/20 07:43:21;;;;;;;22.48;1.88;;;10.00;99.90;;;;;;5027927;28;20041;-70
2023/11/20 07:45:47;;;;;;;20.52;1.63;;;10.00;99.90;;;;;;5030183;28;20045;-71
2023/11/20 07:48:13;;;;;;;59.13;4.15;;;10.00;99.90;;;;;;5023902;28;20413;-72
2023/11/20 07:50:39;;;;;;;23.55;2.40;;;10.00;99.90;;;;;;5026951;28;20120;-72
2023/11/20 07:53:04;;;;;;;22.25;1.65;;;10.00;99.90;;;;;;5036977;28;20025;-72
2023/11/20 07:55:30;;;;;;;19.45;1.48;;;10.00;99.90;;;;;;5036552;28;20029;-72
2023/11/20 07:57:55;;;;;;;17.23;1.75;;;10.10;99.90;;;;;;5030665;28;20028;-71
2023/11/20 08:00:21;;;;;;;19.38;1.75;;;10.00;99.90;;;;;;5030026;28;20037;-71
2023/11/20 08:02:48;;;;;;;19.90;1.92;;;10.00;99.90;;;;;;5036995;28;20026;-72
2023/11/20 08:05:18;;;;;;;14.60;1.80;;;10.00;99.90;;;;;;5047039;28;20040;-72
2023/11/20 08:07:44;;;;;;;26.70;2.50;;;10.10;99.90;;;;;;5036700;28;20112;-72
2023/11/20 08:10:10;;;;;;;20.98;2.95;;;10.00;99.90;;;;;;5034603;28;20220;-72
2023/11/20 08:12:36;;;;;;;18.30;1.38;;;10.10;99.90;;;;;;5040907;28;20108;-73
2023/11/20 08:15:03;;;;;;;21.73;1.92;;;10.10;99.90;;;;;;5035171;28;20029;-72
2023/11/20 08:17:28;;;;;;;25.80;2.75;;;10.10;99.90;;;;;;5041618;28;20033;-73
2023/11/20 08:19:54;;;;;;;27.77;2.33;;;10.10;99.90;;;;;;5041430;28;20029;-72
2023/11/20 08:22:20;;;;;;;19.50;1.55;;;10.20;99.90;;;;;;5040087;28;20025;-72
2023/11/20 08:24:46;;;;;;;28.02;1.90;;;10.20;99.90;;;;;;5034481;28;20105;-72
2023/11/20 08:27:11;;;;;;;18.35;2.42;;;10.20;99.90;;;;;;5036240;28;20089;-72
2023/11/20 08:29:37;;;;;;;12.73;1.50;;;10.20;99.90;;;;;;5034757;28;20025;-72
2023/11/20 08:32:03;;;;;;;15.57;1.58;;;10.20;99.90;;;;;;5017318;28;20381;-72
2023/11/20 08:34:28;;;;;;;17.45;2.08;;;10.20;99.90;;;;;;5035460;28;20035;-73
2023/11/20 08:36:54;;;;;;;19.88;1.85;;;10.20;99.90;;;;;;5033362;28;20116;-72
2023/11/20 08:39:21;;;;;;;16.55;2.47;;;10.20;99.90;;;;;;5051295;28;20551;-72
2023/11/20 08:41:47;;;;;;;26.02;2.35;;;10.30;99.90;;;;;;5035458;28;20056;-72
2023/11/20 08:44:13;;;;;;;16.42;1.98;;;10.30;99.90;;;;;;5034244;28;20501;-72
2023/11/20 08:46:38;;;;;;;18.92;2.25;;;10.30;99.90;;;;;;5036623;28;20440;-73
2023/11/20 08:49:06;;;;;;;22.42;1.95;;;10.40;99.90;;;;;;5051419;28;20170;-72
2023/11/20 08:51:33;;;;;;;21.52;2.17;;;10.40;99.90;;;;;;5054043;28;20033;-71
2023/11/20 08:54:01;;;;;;;18.60;1.92;;;10.40;99.90;;;;;;5046100;28;20211;-72
2023/11/20 08:56:26;;;;;;;25.05;2.03;;;10.50;99.90;;;;;;5053501;28;20032;-72
2023/11/20 08:58:52;;;;;;;19.65;1.98;;;10.50;99.90;;;;;;5052523;28;20104;-72
2023/11/20 09:01:29;;;;;;;18.95;2.40;;;10.60;99.90;;;;;;5041522;28;20036;-71
2023/11/20 09:03:55;;;;;;;18.17;2.35;;;10.60;99.90;;;;;;5033735;28;20386;-70
2023/11/20 09:06:21;;;;;;;21.48;2.10;;;10.60;99.90;;;;;;5033555;28;20036;-70
2023/11/20 09:08:46;;;;;;;20.02;2.45;;;10.60;99.90;;;;;;5033965;28;20072;-70
2023/11/20 09:11:12;;;;;;;23.38;3.00;;;10.60;99.90;;;;;;5033767;28;20045;-72
2023/11/20 09:13:37;;;;;;;16.83;2.10;;;10.70;99.90;;;;;;5049753;28;20025;-73
2023/11/20 09:16:03;;;;;;;29.80;4.38;;;10.70;99.90;;;;;;5041654;28;20029;-72
2023/11/20 09:18:29;;;;;;;16.42;3.83;;;10.70;99.90;;;;;;5039828;28;20025;-73
2023/11/20 09:20:57;;;;;;;25.45;3.83;;;10.70;99.90;;;;;;5035248;28;20033;-72
2023/11/20 09:23:22;;;;;;;23.08;3.33;;;10.70;99.90;;;;;;5032378;28;20041;-73
2023/11/20 09:25:48;;;;;;;27.63;4.15;;;10.70;99.90;;;;;;5045978;28;20401;-73
2023/11/20 09:28:15;;;;;;;23.63;4.25;;;10.70;99.90;;;;;;5039556;28;20044;-72
2023/11/20 09:30:40;;;;;;;24.63;4.10;;;10.80;99.90;;;;;;5046898;28;20029;-72
2023/11/20 09:33:06;;;;;;;22.88;4.32;;;10.80;99.90;;;;;;5036690;28;20350;-72
2023/11/20 09:35:34;;;;;;;24.52;4.90;;;10.90;99.90;;;;;;5039729;28;20442;-70
2023/11/20 09:37:59;;;;;;;23.85;5.95;;;10.90;99.90;;;;;;5033684;28;20083;-73
2023/11/20 09:40:25;;;;;;;32.70;6.20;;;10.90;99.90;;;;;;5030243;28;20493;-73
2023/11/20 09:42:51;;;;;;;21.63;5.38;;;11.00;99.90;;;;;;5035972;28;20045;-73
2023/11/20 09:45:27;;;;;;;25.42;6.00;;;11.00;99.90;;;;;;5041446;28;20029;-72
2023/11/20 09:47:55;;;;;;;25.15;5.30;;;11.00;99.90;;;;;;5052040;28;20370;-73
2023/11/20 09:50:24;;;;;;;25.38;7.03;;;11.00;99.90;;;;;;5037873;28;20044;-72
2023/11/20 09:52:51;;;;;;;24.77;5.32;;;11.10;99.90;;;;;;5050343;28;20029;-73
2023/11/20 09:55:18;;;;;;;21.45;6.20;;;11.20;99.90;;;;;;5033884;28;20098;-72
2023/11/20 09:57:44;;;;;;;20.05;5.45;;;11.10;99.90;;;;;;5039688;28;20209;-72
2023/11/20 10:00:17;;;;;;;21.63;5.22;;;11.20;99.90;;;;;;5032458;28;20025;-71
2023/11/20 10:02:46;;;;;;;;;;;11.20;99.90;;;;;;5037732;28;20017;-72
2023/11/20 10:05:22;;;;;;;17.35;6.20;;;11.20;99.90;;;;;;5037355;28;20295;-71
2023/11/20 10:07:51;;;;;;;24.10;5.60;;;11.20;99.90;;;;;;5035443;28;20087;-72
2023/11/20 10:10:17;;;;;;;21.58;5.43;;;11.20;99.90;;;;;;5033993;28;20596;-71
2023/11/20 10:12:47;;;;;;;21.50;7.25;;;11.30;99.90;;;;;;5038370;28;20028;-71
2023/11/20 10:15:14;;;;;;;22.02;5.57;;;11.30;99.90;;;;;;5049932;28;20082;-72
2023/11/20 10:17:40;;;;;;;24.10;6.03;;;11.30;99.90;;;;;;5039429;28;20377;-72
2023/11/20 10:20:09;;;;;;;20.80;6.60;;;11.30;99.90;;;;;;5036771;28;20029;-71
2023/11/20 10:22:35;;;;;;;22.95;6.38;;;11.30;99.90;;;;;;5042262;28;20025;-71
2023/11/20 10:25:06;;;;;;;22.63;7.07;;;11.40;99.90;;;;;;5041371;28;20446;-71
2023/11/20 10:27:32;;;;;;;23.95;6.55;;;11.50;99.90;;;;;;5042353;28;20032;-71
2023/11/20 10:29:58;;;;;;;25.02;6.97;;;11.60;99.90;;;;;;5032793;28;20426;-71
2023/11/20 10:32:27;;;;;;;20.55;5.95;;;11.60;99.90;;;;;;5045881;28;20037;-71
2023/11/20 10:35:27;;;;;;;17.23;6.63;;;11.60;99.90;;;;;;5046704;28;20478;-71
2023/11/20 10:37:58;;;;;;;21.80;6.45;;;11.70;99.90;;;;;;5041062;28;20111;-72
2023/11/20 10:40:25;;;;;;;23.75;7.13;;;11.90;99.90;;;;;;5031004;28;20433;-72
2023/11/20 10:42:52;;;;;;;23.13;7.07;;;12.00;99.90;;;;;;5032650;28;20491;-72
2023/11/20 10:45:18;;;;;;;17.65;6.57;;;12.10;99.90;;;;;;5047988;28;20067;-72
2023/11/20 10:47:45;;;;;;;20.17;6.25;;;12.00;99.90;;;;;;5042073;28;20496;-72
2023/11/20 10:50:13;;;;;;;22.20;7.00;;;12.00;99.90;;;;;;5039685;28;20021;-72
2023/11/20 10:52:41;;;;;;;27.00;6.85;;;11.90;99.90;;;;;;5040487;28;20638;-72
2023/11/20 10:55:14;;;;;;;20.02;6.75;;;11.80;99.90;;;;;;5031328;28;20036;-72
2023/11/20 10:57:40;;;;;;;19.20;5.90;;;11.80;99.90;;;;;;5033739;28;20022;-72
2023/11/20 11:00:10;;;;;;;17.52;6.30;;;11.80;99.90;;;;;;5033426;28;20033;-72
2023/11/20 11:02:44;;;;;;;22.27;6.75;;;11.80;99.90;;;;;;5033641;28;20025;-72
2023/11/20 11:05:12;;;;;;;19.52;6.43;;;11.90;99.90;;;;;;5033979;28;20048;-72
2023/11/20 11:07:42;;;;;;;24.30;6.10;;;11.90;99.90;;;;;;5048490;28;20037;-72
2023/11/20 11:10:10;;;;;;;23.13;5.88;;;11.90;99.90;;;;;;5046805;28;20037;-72
2023/11/20 11:12:45;;;;;;;19.63;5.85;;;12.00;99.90;;;;;;5039541;28;20386;-72
2023/11/20 11:15:13;;;;;;;13.35;4.13;;;12.00;99.90;;;;;;5031648;28;20017;-72
2023/11/20 11:17:45;;;;;;;14.57;5.00;;;12.10;99.90;;;;;;5049909;28;20031;-72
2023/11/20 11:20:13;;;;;;;18.92;5.30;;;12.10;99.90;;;;;;5033775;28;20025;-72
2023/11/20 11:22:42;;;;;;;17.67;5.00;;;12.20;99.90;;;;;;5037207;28;20048;-72
2023/11/20 11:25:10;;;;;;;21.13;5.15;;;12.20;99.90;;;;;;5044707;28;20041;-72
2023/11/20 11:27:38;;;;;;;17.23;4.28;;;12.30;99.90;;;;;;5032055;28;20026;-73
2023/11/20 11:30:07;;;;;;;23.80;4.38;;;12.30;99.90;;;;;;5038901;28;20116;-72
2023/11/20 11:33:17;;;;;;;15.55;4.15;;;12.40;99.90;;;;;;5033550;28;20021;-72
2023/11/20 11:36:11;;;;;;;17.42;4.38;;;12.50;99.90;;;;;;5029830;28;20052;-72
2023/11/20 11:39:16;;;;;;;17.15;4.50;;;12.50;99.90;;;;;;5032755;28;20029;-72
2023/11/20 11:41:48;;;;;;;14.45;2.63;;;12.50;99.90;;;;;;5030748;28;20044;-72
2023/11/20 11:44:39;;;;;;;10.43;2.30;;;12.50;99.90;;;;;;5036403;28;20044;-72
2023/11/20 11:47:12;;;;;;;10.65;2.65;;;12.40;99.90;;;;;;5030669;28;20108;-73
2023/11/20 11:49:48;;;;;;;17.00;2.15;;;12.30;99.90;;;;;;5041032;28;20033;-72
2023/11/20 11:52:13;;;;;;;16.42;1.95;;;12.10;99.90;;;;;;5037992;28;20036;-73
2023/11/20 11:54:39;;;;;;;11.23;1.38;;;11.90;99.90;;;;;;5037011;28;20017;-73
2023/11/20 11:57:22;;;;;;;18.90;1.45;;;11.80;99.90;;;;;;5038000;28;20033;-72
2023/11/20 11:59:50;;;;;;;12.85;1.13;;;11.90;99.90;;;;;;5036862;28;20029;-72
2023/11/20 12:02:19;;;;;;;19.42;1.90;;;11.70;99.90;;;;;;5038160;28;20025;-72
2023/11/20 12:04:56;;;;;;;9.82;1.38;;;11.70;99.90;;;;;;5038943;28;20508;-72
2023/11/20 12:07:58;;;;;;;15.68;1.05;;;11.70;99.90;;;;;;5037258;28;20025;-72
2023/11/20 12:10:49;;;;;;;10.32;1.00;;;11.80;99.90;;;;;;5037427;28;20034;-73
2023/11/20 12:13:18;;;;;;;14.63;1.30;;;11.90;99.90;;;;;;5031209;28;20037;-72
2023/11/20 12:15:51;;;;;;;10.10;1.13;;;12.10;99.90;;;;;;5033188;28;20554;-72
2023/11/20 12:18:21;;;;;;;8.80;0.98;;;12.40;99.90;;;;;;5036754;28;20488;-72
2023/11/20 12:20:49;;;;;;;11.05;1.30;;;12.60;99.90;;;;;;5033557;28;20172;-72
2023/11/20 12:23:30;;;;;;;13.15;1.60;;;12.80;99.90;;;;;;5034587;28;20075;-73
2023/11/20 12:25:57;;;;;;;12.93;1.67;;;12.90;99.90;;;;;;5032871;28;20036;-72
2023/11/20 12:28:24;;;;;;;11.77;1.08;;;12.90;99.90;;;;;;5030085;28;20036;-72
2023/11/20 12:30:56;;;;;;;17.08;2.00;;;13.00;99.90;;;;;;5030385;28;20083;-72
2023/11/20 12:33:25;;;;;;;17.02;1.00;;;13.00;99.90;;;;;;5031617;28;20033;-72
2023/11/20 12:35:52;;;;;;;9.10;1.05;;;12.90;99.90;;;;;;5028029;28;20033;-70
2023/11/20 12:38:19;;;;;;;8.18;0.80;;;13.00;99.90;;;;;;5037885;28;20029;-71